Bowmansville, New York
Current Conditions -  °F | °C
As of 8:54 AM on Sunday 25 Jan 2015 (Local Time) from KBUF Reporting Station
Light Snow Light Snow  
Wind Chill: -16°   Ceiling: 1600
Heat Index: -9°   Visibility: 10mi
Dew Point: -12°   Wind: 12mph
Humidity: 77%   Direction: 320°NW
Pressure: 29.86"   Gusts: NA
Location:  42.94°N, 78.68°W
Report Text: KBUF 251354Z 32010KT 10SM -SN BKN016 M09/M12 A2986 RMK AO2 SLP124 SNB45 P0000 T10891122
Loading
Personal Weather Stations






























Interactive Weather Map New forecast layout! Learn more

10-Day Weather Forecast

Advertisements
Track Severe Weather on mobile